createdAt,value
2022-12-31T00:00:08.991Z,98.54
2022-12-31T00:02:36.334Z,98.38
2022-12-31T00:05:03.339Z,98.44
2022-12-31T00:07:29.957Z,98.44
2022-12-31T00:09:56.509Z,98.45
2022-12-31T00:12:23.101Z,98.49
2022-12-31T00:14:49.669Z,98.51
2022-12-31T00:17:16.225Z,98.71
2022-12-31T00:19:42.784Z,98.71
2022-12-31T00:22:09.408Z,98.81
2022-12-31T00:24:36.008Z,98.94
2022-12-31T00:27:02.692Z,98.89
2022-12-31T00:29:29.323Z,98.93
2022-12-31T00:31:55.869Z,98.92
2022-12-31T00:34:22.527Z,98.84
2022-12-31T00:36:49.172Z,98.90
2022-12-31T00:39:15.739Z,98.94
2022-12-31T00:41:44.068Z,99.06
2022-12-31T00:44:14.549Z,98.76
2022-12-31T00:49:07.161Z,98.65
2022-12-31T00:51:33.775Z,98.51
2022-12-31T00:54:00.476Z,98.45
2022-12-31T00:56:29.486Z,98.63
2022-12-31T00:58:56.274Z,98.50
2022-12-31T01:01:30.035Z,98.33
2022-12-31T01:04:04.113Z,98.45
2022-12-31T01:06:31.151Z,98.40
2022-12-31T01:08:57.886Z,98.26
2022-12-31T06:32:35.479Z,99.99
2022-12-31T06:35:02.067Z,99.99
2022-12-31T06:37:28.658Z,99.99
2022-12-31T06:39:55.245Z,99.99
2022-12-31T06:42:22.427Z,99.99
2022-12-31T06:44:49.129Z,99.99
2022-12-31T06:47:16.112Z,99.99
2022-12-31T06:49:43.225Z,99.99
2022-12-31T06:52:09.893Z,99.99
2022-12-31T06:54:37.283Z,99.99
2022-12-31T06:57:04.500Z,99.99
2022-12-31T06:59:31.862Z,99.99
2022-12-31T07:02:29.988Z,99.99
2022-12-31T07:05:09.155Z,99.99
2022-12-31T07:07:45.597Z,99.99
2022-12-31T07:10:29.811Z,99.99
2022-12-31T07:13:08.894Z,99.99
2022-12-31T07:16:08.610Z,99.99
2022-12-31T07:18:48.527Z,99.99
2022-12-31T07:21:18.679Z,99.99
2022-12-31T07:23:46.106Z,99.99
2022-12-31T07:26:26.054Z,99.99
2022-12-31T07:29:18.177Z,99.99
2022-12-31T07:32:03.791Z,99.99
2022-12-31T07:34:36.542Z,99.49
2022-12-31T07:37:15.159Z,99.55
2022-12-31T07:39:45.709Z,99.40
2022-12-31T07:42:29.161Z,98.90
2022-12-31T07:45:18.142Z,99.25
2022-12-31T07:47:45.132Z,99.30
2022-12-31T07:50:17.963Z,98.82
2022-12-31T07:52:46.105Z,98.53
2022-12-31T07:55:13.249Z,98.33
2022-12-31T07:57:55.753Z,98.36
2022-12-31T08:00:23.014Z,98.45
2022-12-31T08:03:04.378Z,98.44
2022-12-31T08:05:46.855Z,98.70
2022-12-31T08:08:29.255Z,98.95
2022-12-31T08:11:07.673Z,98.88
2022-12-31T08:13:35.091Z,99.09
2022-12-31T08:16:02.931Z,99.06
2022-12-31T08:18:29.880Z,99.11
2022-12-31T08:21:28.222Z,99.16
2022-12-31T08:24:09.794Z,99.44
2022-12-31T08:26:41.729Z,99.38
2022-12-31T08:29:15.243Z,99.42
2022-12-31T08:32:02.122Z,99.52
2022-12-31T08:34:40.040Z,99.70
2022-12-31T08:37:09.839Z,99.50
2022-12-31T08:40:20.969Z,99.44
2022-12-31T08:43:22.250Z,99.42
2022-12-31T08:45:52.512Z,99.20
2022-12-31T08:48:31.447Z,99.26
2022-12-31T08:50:58.763Z,99.04
2022-12-31T08:53:26.244Z,98.71
2022-12-31T08:56:00.921Z,98.70
2022-12-31T08:58:45.680Z,98.48
2022-12-31T09:01:15.176Z,98.24
2022-12-31T09:04:08.282Z,97.85
2022-12-31T09:06:44.522Z,97.59
2022-12-31T09:09:26.455Z,97.30
2022-12-31T09:12:14.806Z,96.90
2022-12-31T09:14:48.615Z,96.56
2022-12-31T09:17:49.492Z,95.95
2022-12-31T09:20:20.111Z,95.51
2022-12-31T09:22:47.299Z,95.16
2022-12-31T09:25:19.889Z,94.97
2022-12-31T09:28:03.649Z,94.52
2022-12-31T09:30:39.707Z,94.12
2022-12-31T09:33:16.637Z,93.77
2022-12-31T09:35:56.920Z,93.29
2022-12-31T09:38:37.601Z,93.28
2022-12-31T09:41:29.267Z,93.33
2022-12-31T09:44:27.990Z,93.46
2022-12-31T09:47:29.343Z,93.32
2022-12-31T09:50:26.916Z,93.52
2022-12-31T09:53:16.482Z,93.45
2022-12-31T09:55:55.911Z,93.79
2022-12-31T09:58:42.195Z,93.75
2022-12-31T10:01:59.614Z,93.78
2022-12-31T10:05:02.391Z,93.69
2022-12-31T10:07:53.443Z,93.56
2022-12-31T10:10:51.839Z,93.40
2022-12-31T10:13:45.604Z,93.49
2022-12-31T10:16:34.897Z,93.28
2022-12-31T10:19:39.709Z,92.93
2022-12-31T10:22:16.852Z,92.59
2022-12-31T10:24:56.599Z,92.69
2022-12-31T10:27:57.611Z,92.61
2022-12-31T10:30:25.426Z,92.65
2022-12-31T10:33:08.348Z,92.91
2022-12-31T10:35:58.567Z,93.29
2022-12-31T10:38:47.055Z,93.37
2022-12-31T10:41:41.706Z,93.66
2022-12-31T10:44:20.624Z,93.90
2022-12-31T10:47:27.955Z,94.11
2022-12-31T10:50:15.935Z,94.85
2022-12-31T10:53:01.111Z,95.27
2022-12-31T10:56:04.973Z,95.35
2022-12-31T10:58:40.666Z,95.03
2022-12-31T11:01:17.800Z,94.61
2022-12-31T11:04:23.954Z,94.17
2022-12-31T11:06:56.673Z,93.55
2022-12-31T11:09:57.772Z,92.42
2022-12-31T11:12:40.078Z,91.50
2022-12-31T11:15:06.937Z,90.69
2022-12-31T11:18:17.274Z,90.25
2022-12-31T11:20:56.463Z,89.89
2022-12-31T11:23:50.924Z,89.63
2022-12-31T11:27:09.004Z,89.73
2022-12-31T11:29:54.255Z,90.13
2022-12-31T11:32:51.391Z,91.60
2022-12-31T11:35:56.462Z,92.45
2022-12-31T11:38:29.618Z,92.74
2022-12-31T11:41:19.271Z,93.07
2022-12-31T11:44:33.633Z,93.25
2022-12-31T11:48:20.246Z,92.96
2022-12-31T11:50:35.703Z,92.60
2022-12-31T11:53:33.382Z,91.70
2022-12-31T11:56:15.241Z,91.44
2022-12-31T11:58:53.118Z,92.14
2022-12-31T12:01:30.681Z,92.71
2022-12-31T12:03:57.864Z,93.10
2022-12-31T12:06:28.535Z,93.55
2022-12-31T12:09:13.239Z,93.96
2022-12-31T12:11:41.280Z,93.90
2022-12-31T12:14:34.560Z,93.71
2022-12-31T12:17:05.192Z,93.75
2022-12-31T12:19:34.253Z,93.68
2022-12-31T12:22:15.583Z,93.39
2022-12-31T12:24:54.111Z,92.98
2022-12-31T12:27:24.086Z,92.84
2022-12-31T12:29:50.854Z,92.79
2022-12-31T12:32:20.658Z,92.74
2022-12-31T12:34:50.145Z,92.36
2022-12-31T12:37:35.653Z,92.04
2022-12-31T12:40:04.640Z,91.81
2022-12-31T12:42:31.582Z,91.79
2022-12-31T12:45:07.450Z,92.08
2022-12-31T12:47:34.915Z,91.79
2022-12-31T12:50:02.167Z,91.90
2022-12-31T12:52:59.546Z,92.06
2022-12-31T12:55:38.023Z,92.18
2022-12-31T12:58:19.312Z,92.02
2022-12-31T13:00:55.447Z,91.90
2022-12-31T13:04:00.025Z,92.29
2022-12-31T13:06:51.260Z,92.48
2022-12-31T13:09:40.117Z,92.73
2022-12-31T13:12:18.632Z,92.90
2022-12-31T13:14:51.899Z,92.97
2022-12-31T13:18:11.878Z,92.78
2022-12-31T13:20:48.762Z,92.09
2022-12-31T13:23:24.480Z,91.97
2022-12-31T13:26:17.078Z,92.35
2022-12-31T13:28:46.929Z,92.24
2022-12-31T13:31:19.243Z,91.97
2022-12-31T13:33:52.511Z,91.96
2022-12-31T13:36:21.597Z,91.55
2022-12-31T13:38:52.225Z,91.35
2022-12-31T13:41:25.330Z,91.00
2022-12-31T13:44:13.427Z,91.02
2022-12-31T13:47:07.652Z,91.13
2022-12-31T13:49:47.942Z,90.91
2022-12-31T13:52:40.421Z,90.11
2022-12-31T13:55:15.540Z,89.43
2022-12-31T13:58:00.807Z,88.67
2022-12-31T14:00:37.039Z,87.21
2022-12-31T14:03:17.961Z,87.05
2022-12-31T14:06:02.511Z,86.82
2022-12-31T14:08:29.288Z,86.89
2022-12-31T14:11:08.520Z,87.01
2022-12-31T14:14:00.848Z,87.06
2022-12-31T14:17:08.786Z,87.04
2022-12-31T14:19:55.448Z,87.44
2022-12-31T14:22:24.935Z,87.60
2022-12-31T14:24:52.310Z,87.64
2022-12-31T14:27:22.790Z,87.74
2022-12-31T14:29:58.175Z,87.45
2022-12-31T14:32:25.046Z,87.50
2022-12-31T14:35:17.414Z,86.90
2022-12-31T14:38:31.977Z,86.90
2022-12-31T14:41:01.620Z,86.30
2022-12-31T14:43:57.685Z,86.28
2022-12-31T14:46:29.846Z,86.09
2022-12-31T14:49:06.471Z,85.93
2022-12-31T14:51:35.994Z,85.92
2022-12-31T14:54:02.723Z,85.78
2022-12-31T14:56:45.098Z,85.22
2022-12-31T14:59:28.241Z,84.60
2022-12-31T15:01:56.731Z,84.44
2022-12-31T15:04:42.824Z,84.22
2022-12-31T15:07:44.645Z,84.29
2022-12-31T15:10:29.484Z,83.90
2022-12-31T15:13:06.696Z,83.61
2022-12-31T15:15:42.448Z,83.00
2022-12-31T15:18:35.967Z,82.86
2022-12-31T15:21:23.433Z,82.81
2022-12-31T15:23:50.272Z,82.54
2022-12-31T15:26:24.015Z,82.14
2022-12-31T15:29:00.049Z,81.81
2022-12-31T15:31:27.420Z,81.88
2022-12-31T15:34:04.555Z,82.15
2022-12-31T15:36:38.520Z,82.08
2022-12-31T15:39:11.311Z,82.35
2022-12-31T15:42:10.236Z,82.48
2022-12-31T15:44:51.401Z,82.13
2022-12-31T15:47:32.014Z,81.92
2022-12-31T15:50:03.884Z,81.82
2022-12-31T15:52:39.988Z,81.48
2022-12-31T15:55:07.690Z,80.76
2022-12-31T15:57:41.190Z,80.83
2022-12-31T16:00:20.066Z,81.08
2022-12-31T16:02:48.366Z,81.16
2022-12-31T16:05:24.786Z,80.84
2022-12-31T16:07:59.271Z,80.75
2022-12-31T16:10:31.901Z,80.12
2022-12-31T16:12:59.815Z,80.33
2022-12-31T16:15:32.749Z,79.99
2022-12-31T16:18:06.365Z,80.34
2022-12-31T16:20:34.745Z,79.31
2022-12-31T16:23:03.433Z,79.79
2022-12-31T16:25:33.369Z,79.79
2022-12-31T16:28:02.063Z,79.49
2022-12-31T16:30:32.490Z,79.72
2022-12-31T16:33:02.502Z,79.57
2022-12-31T16:35:38.232Z,79.07
2022-12-31T16:38:17.012Z,78.88
2022-12-31T16:40:58.853Z,79.02
2022-12-31T16:43:31.085Z,78.99
2022-12-31T16:46:30.626Z,78.94
2022-12-31T16:49:00.297Z,78.34
2022-12-31T16:51:32.170Z,77.97
2022-12-31T16:54:01.541Z,78.25
2022-12-31T16:56:38.367Z,77.89
2022-12-31T16:59:30.452Z,78.26
2022-12-31T17:02:01.641Z,77.78
